CND4 weather

Stanhope Municipal Airport
Haliburton, Ontario, Canada

Public forecast

Using degrees Celsius for public forecast. Weather courtesy of forecast.io.

Closest aviation weather report (METAR) to Stanhope Municipal Airport

Closest report is Muskoka Airport, 29.3 nm (54.3 km) WSW. Retrieved 2019/12/12 05:37 UTC (8 minutes ago):

CYQA 120537Z AUTO 26008G16KT 1 1/4SM -SN OVC013 M07/M09 A3038 RMK VIS VRB 1-3 SLP307

Closest aviation forecast (TAF) to Stanhope Municipal Airport

Forecast is more than 6 hours old.

Closest forecast is Muskoka Airport, 29.3 nm (54.3 km) WSW. Retrieved 2019/12/11 20:00 UTC (10 hours ago):

TAF CYQA 111938Z 1120/1203 26015G25KT 1SM -SHSN BLSN OVC012 TEMPO 1120/1203 6SM -SN SCT012 OVC025 RMK FCST BASED ON AUTO OBS NXT FCST WILL BE ISSUED AT 121245Z